Time;durP1;ratioP1;P1;durP2;ratioP2;P2;SDS_P1;SDS_P2;PMS_P1;PMS_P2;Temp;Humidity;BMP_temperature;BMP_pressure;BME280_temperature;BME280_humidity;BME280_pressure;Samples;Min_cycle;Max_cycle;Signal;HPM_P1;HPM_P2
2023/08/17 00:02:22;;;;;;;4.97;2.83;;;;;;;21.43;100.00;-18602.78;5044586;28;20036;-77
2023/08/17 00:04:47;;;;;;;6.93;2.25;;;;;;;21.46;100.00;-18603.59;5044652;28;20044;-76
2023/08/17 00:07:12;;;;;;;4.63;2.55;;;;;;;21.33;100.00;-18600.19;5045927;28;20772;-76
2023/08/17 00:09:39;;;;;;;6.13;2.45;;;;;;;21.37;100.00;-18601.28;5042825;28;21835;-76
2023/08/17 00:12:05;;;;;;;7.10;2.63;;;;;;;21.29;100.00;-18599.25;5045517;28;20104;-76
2023/08/17 00:14:30;;;;;;;4.70;2.40;;;;;;;21.27;100.00;-18598.69;5044070;28;20132;-77
2023/08/17 00:16:56;;;;;;;7.20;2.85;;;;;;;21.20;100.00;-18596.78;5043379;28;20064;-77
2023/08/17 00:19:21;;;;;;;4.25;2.40;;;;;;;21.15;100.00;-18595.44;5050297;28;20519;-77
2023/08/17 00:21:47;;;;;;;5.75;2.70;;;;;;;21.00;100.00;-18591.34;5045720;28;20041;-77
2023/08/17 00:24:12;;;;;;;5.60;2.30;;;;;;;21.18;100.00;-18596.38;5044735;28;20408;-77
2023/08/17 00:26:38;;;;;;;4.28;2.50;;;;;;;21.17;100.00;-18596.13;5044275;28;20076;-76
2023/08/17 00:29:03;;;;;;;7.13;2.53;;;;;;;21.17;100.00;-18595.97;5045091;28;20041;-77
2023/08/17 00:31:29;;;;;;;6.57;2.80;;;;;;;21.09;100.00;-18593.94;5043095;28;20119;-77
2023/08/17 00:33:54;;;;;;;6.85;2.38;;;;;;;21.05;100.00;-18592.72;5037220;28;20037;-77
2023/08/17 00:36:19;;;;;;;6.50;2.47;;;;;;;21.01;100.00;-18591.78;5044204;28;20045;-77
2023/08/17 00:38:45;;;;;;;4.45;2.20;;;;;;;21.01;100.00;-18591.63;5044247;28;20049;-77
2023/08/17 00:41:10;;;;;;;6.53;2.17;;;;;;;21.11;100.00;-18594.34;5043464;28;20195;-77
2023/08/17 00:43:35;;;;;;;6.13;2.30;;;;;;;21.06;100.00;-18593.00;5043754;28;20044;-77
2023/08/17 00:46:01;;;;;;;5.85;2.33;;;;;;;21.07;100.00;-18593.25;5045460;28;20114;-76
2023/08/17 00:48:28;;;;;;;5.88;2.25;;;;;;;21.16;100.00;-18595.84;5045469;28;20041;-77
2023/08/17 00:50:57;;;;;;;5.68;2.53;;;;;;;21.12;100.00;-18594.63;5047546;28;20037;-77
2023/08/17 00:53:25;;;;;;;7.68;2.65;;;;;;;21.00;100.00;-18591.34;5063403;28;20045;-77
2023/08/17 00:55:53;;;;;;;4.70;2.53;;;;;;;21.07;100.00;-18593.41;5047194;28;20519;-77
2023/08/17 00:58:19;;;;;;;4.22;2.30;;;;;;;21.00;100.00;-18591.50;5048975;28;20119;-76
2023/08/17 01:00:45;;;;;;;7.93;2.70;;;;;;;20.98;100.00;-18590.81;5045758;28;20037;-76
2023/08/17 01:03:10;;;;;;;6.55;2.60;;;;;;;21.03;100.00;-18592.19;5048845;28;20060;-76
2023/08/17 01:05:37;;;;;;;6.55;2.47;;;;;;;21.02;100.00;-18592.03;5064333;28;20045;-78
2023/08/17 01:08:03;;;;;;;4.68;2.40;;;;;;;21.01;100.00;-18591.78;5051173;28;20131;-76
2023/08/17 01:10:45;;;;;;;5.03;2.05;;;;;;;21.07;100.00;-18593.41;5049484;28;20136;-76
2023/08/17 01:13:20;;;;;;;5.20;2.78;;;;;;;21.09;100.00;-18593.81;5031790;28;20562;-77
2023/08/17 01:15:51;;;;;;;4.43;2.35;;;;;;;21.04;100.00;-18592.59;5049316;28;20436;-77
2023/08/17 01:18:31;;;;;;;6.63;2.33;;;;;;;20.95;100.00;-18590.13;5048428;28;20051;-79
2023/08/17 01:20:57;;;;;;;5.80;2.40;;;;;;;21.00;100.00;-18591.34;5048849;28;20416;-76
2023/08/17 01:23:22;;;;;;;6.40;2.58;;;;;;;20.99;100.00;-18591.09;5046808;28;20032;-77
2023/08/17 01:25:48;;;;;;;4.80;2.30;;;;;;;20.92;100.00;-18589.47;5050228;28;20040;-77
2023/08/17 01:28:13;;;;;;;5.10;2.08;;;;;;;20.87;100.00;-18588.09;5066705;28;20040;-76
2023/08/17 01:30:57;;;;;;;3.97;2.00;;;;;;;20.84;100.00;-18587.28;5047676;28;20103;-77
2023/08/17 01:33:35;;;;;;;6.00;2.67;;;;;;;20.92;100.00;-18589.47;5047985;28;20041;-77
2023/08/17 01:36:26;;;;;;;6.35;2.38;;;;;;;20.71;100.00;-18583.88;5064315;28;20071;-76
2023/08/17 01:38:54;;;;;;;6.53;2.47;;;;;;;20.80;100.00;-18586.19;5064635;28;20047;-75
2023/08/17 01:41:22;;;;;;;4.60;2.30;;;;;;;20.79;100.00;-18585.91;5049874;28;20094;-75
2023/08/17 01:43:48;;;;;;;4.60;2.35;;;;;;;20.85;100.00;-18587.41;5048575;28;20067;-77
2023/08/17 01:46:18;;;;;;;6.55;2.50;;;;;;;20.79;100.00;-18585.91;5050489;28;20148;-75
2023/08/17 01:48:44;;;;;;;6.45;2.28;;;;;;;20.71;100.00;-18583.88;5049130;28;20107;-77
2023/08/17 01:51:11;;;;;;;6.60;2.55;;;;;;;20.68;100.00;-18582.94;5050025;28;20052;-76
2023/08/17 01:53:37;;;;;;;6.40;2.20;;;;;;;20.73;100.00;-18584.41;5050074;28;20484;-78
2023/08/17 01:56:02;;;;;;;5.93;2.25;;;;;;;20.63;100.00;-18581.69;5048724;28;20115;-76
2023/08/17 01:58:27;;;;;;;7.80;2.55;;;;;;;20.71;100.00;-18583.75;5049279;28;20032;-75
2023/08/17 02:00:53;;;;;;;6.70;2.30;;;;;;;20.81;100.00;-18586.31;5048485;28;20076;-77
2023/08/17 02:03:18;;;;;;;7.35;2.40;;;;;;;20.78;100.00;-18585.50;5050288;28;20508;-75
2023/08/17 02:05:45;;;;;;;6.75;2.70;;;;;;;20.79;100.00;-18585.78;5049697;28;20033;-78
2023/08/17 02:08:10;;;;;;;7.47;2.85;;;;;;;20.81;100.00;-18586.47;5050414;28;20051;-76
2023/08/17 02:10:36;;;;;;;5.22;2.20;;;;;;;20.73;100.00;-18584.28;5063761;28;20443;-77
2023/08/17 02:13:01;;;;;;;6.72;2.38;;;;;;;20.73;100.00;-18584.41;5051131;28;20116;-77
2023/08/17 02:15:27;;;;;;;4.47;2.20;;;;;;;20.80;100.00;-18586.19;5050073;28;20044;-78
2023/08/17 02:17:52;;;;;;;5.30;2.60;;;;;;;20.83;100.00;-18586.88;5050271;28;20036;-76
2023/08/17 02:20:18;;;;;;;5.82;2.63;;;;;;;20.83;100.00;-18586.88;5051319;28;20165;-77
2023/08/17 02:22:43;;;;;;;4.35;2.40;;;;;;;20.84;100.00;-18587.16;5049219;28;20091;-78
2023/08/17 02:25:09;;;;;;;7.00;2.60;;;;;;;20.85;100.00;-18587.41;5050316;28;20114;-77
2023/08/17 02:27:34;;;;;;;5.03;2.10;;;;;;;20.85;100.00;-18587.41;5048729;28;20053;-77
2023/08/17 02:30:00;;;;;;;5.43;2.88;;;;;;;20.83;100.00;-18587.00;5049604;28;20056;-78
2023/08/17 02:32:25;;;;;;;5.35;3.03;;;;;;;20.82;100.00;-18586.59;5049242;28;20426;-77
2023/08/17 02:34:50;;;;;;;8.18;3.55;;;;;;;20.75;100.00;-18584.69;5049904;28;20115;-77
2023/08/17 02:37:16;;;;;;;5.05;2.85;;;;;;;20.65;100.00;-18582.25;5048589;28;20075;-76
2023/08/17 02:39:41;;;;;;;6.45;3.33;;;;;;;20.66;100.00;-18582.38;5046481;28;20061;-76
2023/08/17 02:42:06;;;;;;;9.95;4.15;;;;;;;20.63;100.00;-18581.56;5049543;28;20052;-79
2023/08/17 02:44:32;;;;;;;7.78;3.50;;;;;;;20.57;100.00;-18579.94;5045530;28;20060;-78
2023/08/17 02:46:57;;;;;;;7.88;3.75;;;;;;;20.55;100.00;-18579.38;5049628;28;20515;-76
2023/08/17 02:49:23;;;;;;;7.75;4.45;;;;;;;20.56;100.00;-18579.66;5047846;28;20041;-78
2023/08/17 02:51:48;;;;;;;7.63;4.13;;;;;;;20.51;100.00;-18578.56;5047447;28;20041;-76
2023/08/17 02:54:13;;;;;;;7.22;3.70;;;;;;;20.28;100.00;-18572.31;5049749;28;20133;-75
2023/08/17 02:56:39;;;;;;;10.15;4.13;;;;;;;20.33;100.00;-18573.66;5062831;28;20192;-79
2023/08/17 02:59:04;;;;;;;8.32;3.92;;;;;;;20.33;100.00;-18573.66;5045247;28;20052;-77
2023/08/17 03:01:30;;;;;;;7.25;4.30;;;;;;;20.25;100.00;-18571.63;5062843;28;20105;-78
2023/08/17 03:03:56;;;;;;;7.20;3.95;;;;;;;20.24;100.00;-18571.22;5045959;28;20569;-76
2023/08/17 03:06:21;;;;;;;8.98;3.92;;;;;;;20.27;100.00;-18572.03;5062073;28;20048;-78
2023/08/17 03:08:47;;;;;;;8.73;4.18;;;;;;;20.14;100.00;-18568.50;5042158;28;20041;-77
2023/08/17 03:11:12;;;;;;;7.00;4.53;;;;;;;20.14;100.00;-18568.63;5063982;28;20068;-76
2023/08/17 03:13:37;;;;;;;10.05;4.72;;;;;;;20.09;100.00;-18567.28;5049292;28;20419;-77
2023/08/17 03:16:03;;;;;;;6.78;3.95;;;;;;;20.06;100.00;-18566.59;5053316;28;20098;-76
2023/08/17 03:18:28;;;;;;;7.07;4.20;;;;;;;20.22;100.00;-18570.69;5051959;28;20086;-76
2023/08/17 03:20:54;;;;;;;9.90;4.35;;;;;;;20.39;100.00;-18575.16;5052414;28;20048;-77
2023/08/17 03:23:19;;;;;;;8.75;3.75;;;;;;;20.07;100.00;-18566.72;5053547;28;20631;-78
2023/08/17 03:25:45;;;;;;;11.15;4.00;;;;;;;20.18;100.00;-18569.59;5064877;28;20051;-76
2023/08/17 03:28:11;;;;;;;7.70;4.32;;;;;;;20.20;100.00;-18570.13;5065739;28;20071;-75
2023/08/17 03:30:36;;;;;;;6.88;4.60;;;;;;;20.13;100.00;-18568.22;5050121;28;20037;-79
2023/08/17 03:33:02;;;;;;;12.35;4.82;;;;;;;20.00;100.00;-18564.81;5051094;28;20119;-77
2023/08/17 03:35:28;;;;;;;6.88;4.80;;;;;;;20.16;100.00;-18569.03;5049834;28;20123;-78
2023/08/17 03:37:53;;;;;;;6.15;4.75;;;;;;;20.15;100.00;-18568.91;5064969;28;20167;-77
2023/08/17 03:40:18;;;;;;;6.50;4.18;;;;;;;20.11;100.00;-18567.69;5049595;28;20045;-77
2023/08/17 03:42:44;;;;;;;8.32;4.85;;;;;;;20.15;100.00;-18568.91;5062143;28;20060;-77
2023/08/17 03:45:09;;;;;;;9.20;5.20;;;;;;;20.12;100.00;-18568.09;5048817;28;20511;-75
2023/08/17 03:47:35;;;;;;;7.95;5.20;;;;;;;19.98;100.00;-18564.41;5048765;28;20084;-77
2023/08/17 03:50:00;;;;;;;8.77;4.93;;;;;;;20.08;100.00;-18566.88;5046986;28;20124;-78
2023/08/17 03:52:25;;;;;;;8.15;5.28;;;;;;;19.97;100.00;-18564.16;5048355;28;20057;-77
2023/08/17 03:54:51;;;;;;;9.13;4.40;;;;;;;19.88;100.00;-18561.69;5048650;28;20060;-79
2023/08/17 03:57:16;;;;;;;10.20;4.78;;;;;;;19.82;100.00;-18560.06;5064102;28;20119;-78
2023/08/17 03:59:41;;;;;;;7.70;4.78;;;;;;;19.87;100.00;-18561.28;5046239;28;20044;-79
2023/08/17 04:02:07;;;;;;;9.05;4.60;;;;;;;19.81;100.00;-18559.78;5048275;28;20049;-79
2023/08/17 04:04:32;;;;;;;8.43;4.97;;;;;;;19.93;100.00;-18562.91;5047430;28;20048;-78
2023/08/17 04:06:57;;;;;;;7.90;4.85;;;;;;;19.91;100.00;-18562.38;5047877;28;20045;-77
2023/08/17 04:09:23;;;;;;;7.70;4.85;;;;;;;20.08;100.00;-18566.88;5046891;28;20127;-79
2023/08/17 04:11:48;;;;;;;8.15;4.80;;;;;;;20.02;100.00;-18565.38;5063261;28;20543;-77
2023/08/17 04:14:14;;;;;;;7.93;4.80;;;;;;;19.87;100.00;-18561.41;5047910;28;20126;-76
2023/08/17 04:16:39;;;;;;;9.18;5.07;;;;;;;20.11;100.00;-18567.69;5046421;28;21140;-78
2023/08/17 04:19:05;;;;;;;7.68;4.03;;;;;;;19.86;100.00;-18561.00;5041868;28;20041;-76
2023/08/17 04:21:30;;;;;;;6.30;4.60;;;;;;;20.01;100.00;-18565.22;5042452;28;20040;-77
2023/08/17 04:23:55;;;;;;;9.32;4.35;;;;;;;19.85;100.00;-18560.88;5045586;28;20053;-76
2023/08/17 04:26:21;;;;;;;8.63;4.38;;;;;;;19.85;100.00;-18560.88;5055691;28;20048;-77
2023/08/17 04:28:47;;;;;;;9.00;4.60;;;;;;;19.88;100.00;-18561.56;5036907;28;20044;-77
2023/08/17 04:31:12;;;;;;;10.80;4.47;;;;;;;20.05;100.00;-18566.19;5041554;28;20156;-77
2023/08/17 04:33:37;;;;;;;9.10;4.53;;;;;;;20.12;100.00;-18567.97;5044259;28;20033;-78
2023/08/17 04:36:03;;;;;;;6.82;4.35;;;;;;;20.12;100.00;-18567.97;5041952;28;20692;-77
2023/08/17 04:38:28;;;;;;;8.65;4.53;;;;;;;20.04;100.00;-18566.03;5041662;28;20037;-77
2023/08/17 04:40:54;;;;;;;6.85;4.32;;;;;;;19.88;100.00;-18561.56;5041757;28;20033;-77
2023/08/17 04:43:19;;;;;;;9.95;4.88;;;;;;;19.67;100.00;-18556.09;5044550;28;20037;-77
2023/08/17 04:45:47;;;;;;;8.32;4.72;;;;;;;19.63;100.00;-18554.88;5044006;28;20045;-77
2023/08/17 04:48:13;;;;;;;10.90;4.93;;;;;;;19.65;100.00;-18555.56;5045988;28;20103;-77
2023/08/17 04:50:38;;;;;;;9.20;4.97;;;;;;;19.62;100.00;-18554.75;5044089;28;20045;-77
2023/08/17 04:53:03;;;;;;;9.25;5.03;;;;;;;19.62;100.00;-18554.75;5057469;28;20124;-78
2023/08/17 04:55:29;;;;;;;9.30;5.38;;;;;;;19.74;100.00;-18558.00;5053264;28;20050;-77
2023/08/17 04:57:55;;;;;;;7.40;5.35;;;;;;;19.67;100.00;-18555.97;5053191;28;20051;-77
2023/08/17 05:00:25;;;;;;;9.20;5.18;;;;;;;19.67;100.00;-18555.97;5046925;28;20037;-79
2023/08/17 05:02:50;;;;;;;7.70;4.82;;;;;;;19.58;100.00;-18553.78;5041352;28;20061;-78
2023/08/17 05:05:16;;;;;;;7.68;4.95;;;;;;;19.45;100.00;-18550.25;5047527;28;20116;-79
2023/08/17 05:07:41;;;;;;;8.10;5.07;;;;;;;19.46;100.00;-18550.53;5043478;28;20061;-77
2023/08/17 05:10:07;;;;;;;9.00;4.70;;;;;;;19.52;100.00;-18552.16;5049615;28;20493;-77
2023/08/17 05:12:32;;;;;;;8.65;4.63;;;;;;;19.58;100.00;-18553.78;5044535;28;20041;-77
2023/08/17 05:14:57;;;;;;;7.03;4.88;;;;;;;19.57;100.00;-18553.38;5060659;28;20061;-78
2023/08/17 05:17:23;;;;;;;6.80;4.45;;;;;;;19.45;100.00;-18550.09;5045954;28;20403;-78
2023/08/17 05:19:48;;;;;;;10.45;4.97;;;;;;;19.64;100.00;-18555.16;5046627;28;20123;-78
2023/08/17 05:22:13;;;;;;;8.27;4.53;;;;;;;19.72;100.00;-18557.34;5045173;28;20056;-77
2023/08/17 05:24:39;;;;;;;8.88;4.63;;;;;;;19.34;100.00;-18547.25;5050171;28;20045;-78
2023/08/17 05:27:05;;;;;;;6.55;4.15;;;;;;;19.44;100.00;-18549.84;5046161;28;20049;-78
2023/08/17 05:29:33;;;;;;;8.93;4.90;;;;;;;19.59;100.00;-18554.06;5043076;28;20041;-78
2023/08/17 05:31:59;;;;;;;9.18;4.18;;;;;;;19.58;100.00;-18553.78;5043659;28;20052;-76
2023/08/17 05:34:25;;;;;;;9.10;4.10;;;;;;;19.58;100.00;-18553.78;5057567;28;20046;-78
2023/08/17 05:36:50;;;;;;;7.00;4.43;;;;;;;19.70;100.00;-18556.94;5047990;28;20122;-77
2023/08/17 05:39:15;;;;;;;8.13;4.28;;;;;;;19.74;100.00;-18558.00;5045392;28;20416;-76
2023/08/17 05:41:41;;;;;;;7.65;4.28;;;;;;;19.73;100.00;-18557.59;5048790;28;20972;-77
2023/08/17 05:44:06;;;;;;;7.80;4.35;;;;;;;19.88;100.00;-18561.56;5066149;28;20063;-77
2023/08/17 05:46:32;;;;;;;9.18;4.60;;;;;;;19.81;100.00;-18559.91;5047656;28;20109;-77
2023/08/17 05:48:59;;;;;;;5.93;3.80;;;;;;;19.61;100.00;-18554.47;5049592;28;20047;-76
2023/08/17 05:51:24;;;;;;;7.50;3.83;;;;;;;19.79;100.00;-18559.25;5048930;28;20045;-76
2023/08/17 05:53:50;;;;;;;8.15;4.10;;;;;;;19.96;100.00;-18563.72;5047901;28;21299;-77
2023/08/17 05:56:15;;;;;;;9.15;4.20;;;;;;;19.94;100.00;-18563.31;5046674;28;20041;-77
2023/08/17 05:58:40;;;;;;;7.00;3.88;;;;;;;20.02;100.00;-18565.50;5046767;28;20464;-76
2023/08/17 06:01:10;;;;;;;6.20;3.53;;;;;;;20.18;100.00;-18569.59;5048189;28;20071;-78
2023/08/17 06:03:36;;;;;;;7.95;3.88;;;;;;;20.14;100.00;-18568.50;5047510;28;20072;-77
2023/08/17 06:06:02;;;;;;;7.78;3.65;;;;;;;20.13;100.00;-18568.22;5046208;28;20687;-77
2023/08/17 06:08:27;;;;;;;7.38;3.67;;;;;;;20.04;100.00;-18566.03;5048139;28;20049;-77
2023/08/17 06:10:53;;;;;;;5.70;3.50;;;;;;;19.89;100.00;-18561.97;5048286;28;20037;-77
2023/08/17 06:13:18;;;;;;;7.43;3.53;;;;;;;19.94;100.00;-18563.31;5047038;28;20048;-75
2023/08/17 06:15:43;;;;;;;6.32;3.47;;;;;;;20.10;100.00;-18567.41;5045489;28;20053;-77
2023/08/17 06:18:09;;;;;;;8.45;3.85;;;;;;;20.07;100.00;-18566.72;5048244;28;20067;-76
2023/08/17 06:20:34;;;;;;;7.07;4.03;;;;;;;20.15;100.00;-18568.78;5047321;28;20041;-77
2023/08/17 06:22:59;;;;;;;6.18;3.72;;;;;;;20.17;100.00;-18569.44;5048100;28;20716;-77
2023/08/17 06:25:25;;;;;;;8.77;3.90;;;;;;;20.17;100.00;-18569.31;5047198;28;20052;-76
2023/08/17 06:27:51;;;;;;;10.63;4.03;;;;;;;20.20;100.00;-18570.13;5063607;28;20052;-77
2023/08/17 06:30:17;;;;;;;8.57;4.00;;;;;;;20.22;100.00;-18570.81;5048835;28;20033;-77
2023/08/17 06:32:42;;;;;;;7.85;3.70;;;;;;;20.33;100.00;-18573.53;5062352;28;20051;-77
2023/08/17 06:35:08;;;;;;;7.45;4.03;;;;;;;20.45;100.00;-18576.78;5046156;28;20047;-76
2023/08/17 06:37:33;;;;;;;8.63;3.53;;;;;;;20.45;100.00;-18576.94;5045678;28;20951;-77
2023/08/17 06:39:59;;;;;;;7.00;3.47;;;;;;;20.21;100.00;-18570.41;5047480;28;20162;-76
2023/08/17 06:42:24;;;;;;;7.88;4.07;;;;;;;20.19;100.00;-18569.84;5063052;28;20049;-77
2023/08/17 06:44:49;;;;;;;7.97;4.00;;;;;;;20.35;100.00;-18574.22;5062843;28;20056;-77
2023/08/17 06:47:15;;;;;;;7.60;3.80;;;;;;;20.54;100.00;-18579.25;5047380;28;20170;-77
2023/08/17 06:49:40;;;;;;;6.10;4.22;;;;;;;20.48;100.00;-18577.75;5064224;28;20859;-78
2023/08/17 06:52:05;;;;;;;7.65;3.80;;;;;;;20.56;100.00;-18579.78;5050657;28;20060;-76
2023/08/17 06:54:32;;;;;;;8.43;3.78;;;;;;;20.60;100.00;-18580.75;5048524;28;20459;-76
2023/08/17 06:56:58;;;;;;;6.95;3.67;;;;;;;20.51;100.00;-18578.44;5049240;28;20071;-76
2023/08/17 06:59:23;;;;;;;7.25;4.05;;;;;;;20.64;100.00;-18581.97;5063527;28;20481;-76
2023/08/17 07:01:48;;;;;;;6.55;3.55;;;;;;;20.57;100.00;-18580.06;5048496;28;20041;-78
2023/08/17 07:04:14;;;;;;;8.32;3.83;;;;;;;20.77;100.00;-18585.38;5063248;28;20083;-75
2023/08/17 07:06:40;;;;;;;7.45;4.18;;;;;;;20.73;100.00;-18584.41;5045648;28;20037;-77
2023/08/17 07:09:06;;;;;;;7.05;3.28;;;;;;;20.77;100.00;-18585.38;5048166;28;20041;-77
2023/08/17 07:11:32;;;;;;;7.10;4.03;;;;;;;20.65;100.00;-18582.09;5060709;28;20040;-77
2023/08/17 07:13:58;;;;;;;6.88;3.40;;;;;;;20.53;100.00;-18578.97;5049328;28;20049;-76
2023/08/17 07:16:23;;;;;;;6.47;3.88;;;;;;;20.70;100.00;-18583.47;5046447;28;20049;-76
2023/08/17 07:18:48;;;;;;;7.60;3.47;;;;;;;20.67;100.00;-18582.78;5046250;28;20043;-76
2023/08/17 07:21:14;;;;;;;6.07;3.78;;;;;;;20.65;100.00;-18582.09;5047470;28;20572;-75
2023/08/17 07:23:44;;;;;;;7.15;3.80;;;;;;;20.72;100.00;-18584.00;5047654;28;20353;-77
2023/08/17 07:26:09;;;;;;;7.47;3.70;;;;;;;20.67;100.00;-18582.66;5050596;28;20047;-77
2023/08/17 07:28:34;;;;;;;6.57;3.65;;;;;;;20.74;100.00;-18584.56;5048301;28;20846;-77
2023/08/17 07:30:59;;;;;;;9.95;4.25;;;;;;;20.73;100.00;-18584.28;5051632;28;20048;-77
2023/08/17 07:33:25;;;;;;;7.03;3.88;;;;;;;20.65;100.00;-18582.25;5051034;28;20045;-76
2023/08/17 07:35:50;;;;;;;7.40;3.70;;;;;;;20.66;100.00;-18582.53;5050382;28;20504;-77
2023/08/17 07:38:16;;;;;;;7.50;4.10;;;;;;;20.71;100.00;-18583.75;5051771;28;20109;-76
2023/08/17 07:40:43;;;;;;;10.60;4.40;;;;;;;20.80;100.00;-18586.06;5066178;28;20036;-77
2023/08/17 07:43:08;;;;;;;11.27;4.50;;;;;;;20.93;100.00;-18589.72;5051321;28;20083;-76
2023/08/17 07:45:34;;;;;;;9.73;4.50;;;;;;;20.84;100.00;-18587.28;5048963;28;20049;-76
2023/08/17 07:47:59;;;;;;;6.47;4.20;;;;;;;20.82;100.00;-18586.72;5052070;28;20123;-76
2023/08/17 07:50:24;;;;;;;8.95;4.85;;;;;;;20.78;100.00;-18585.66;5044281;28;20388;-76
2023/08/17 07:52:50;;;;;;;8.60;4.20;;;;;;;20.85;100.00;-18587.56;5049480;28;20059;-77
2023/08/17 07:55:15;;;;;;;8.35;3.83;;;;;;;20.76;100.00;-18585.09;5050024;28;20060;-78
2023/08/17 07:57:40;;;;;;;8.68;4.72;;;;;;;20.79;100.00;-18585.91;5048887;28;20072;-78
2023/08/17 08:00:06;;;;;;;9.93;4.05;;;;;;;20.82;100.00;-18586.59;5051594;28;20484;-78
2023/08/17 08:02:31;;;;;;;7.93;4.20;;;;;;;20.87;100.00;-18588.09;5049760;28;20136;-78
2023/08/17 08:04:57;;;;;;;8.27;4.55;;;;;;;20.89;100.00;-18588.50;5049092;28;20041;-77
2023/08/17 08:07:22;;;;;;;8.43;4.32;;;;;;;20.83;100.00;-18587.00;5048362;28;20045;-77
2023/08/17 08:09:47;;;;;;;7.35;3.92;;;;;;;20.96;100.00;-18590.41;5050558;28;20044;-77
2023/08/17 08:12:13;;;;;;;8.43;4.05;;;;;;;20.94;100.00;-18590.00;5050878;28;20230;-77
2023/08/17 08:14:38;;;;;;;7.82;4.35;;;;;;;20.93;100.00;-18589.72;5045117;28;20048;-76
2023/08/17 08:17:04;;;;;;;8.13;4.47;;;;;;;21.02;100.00;-18592.03;5045784;28;20068;-77
2023/08/17 08:19:29;;;;;;;7.60;4.22;;;;;;;21.02;100.00;-18591.91;5044685;28;20049;-77
2023/08/17 08:21:54;;;;;;;9.10;4.15;;;;;;;21.02;100.00;-18591.91;5044953;28;20254;-76
2023/08/17 08:24:20;;;;;;;9.27;4.80;;;;;;;21.05;100.00;-18592.72;5045567;28;20041;-75
2023/08/17 08:26:45;;;;;;;7.95;4.30;;;;;;;21.26;100.00;-18598.44;5043890;28;20171;-77
2023/08/17 08:29:10;;;;;;;10.35;4.97;;;;;;;21.12;100.00;-18594.63;5045754;28;20073;-78
2023/08/17 08:31:36;;;;;;;6.55;4.40;;;;;;;21.05;100.00;-18592.84;5044457;28;20138;-76
2023/08/17 08:34:01;;;;;;;7.47;4.70;;;;;;;20.95;100.00;-18590.13;5044776;28;20495;-76
2023/08/17 08:36:26;;;;;;;10.20;4.80;;;;;;;21.14;100.00;-18595.16;5043114;28;20090;-77
2023/08/17 08:38:52;;;;;;;10.30;4.97;;;;;;;21.22;100.00;-18597.22;5044270;28;20048;-76
2023/08/17 08:41:19;;;;;;;7.63;4.60;;;;;;;21.18;100.00;-18596.38;5044132;28;20045;-76
2023/08/17 08:43:44;;;;;;;7.35;4.38;;;;;;;21.22;100.00;-18597.22;5042808;28;20628;-76
2023/08/17 08:46:11;;;;;;;8.32;4.10;;;;;;;21.30;100.00;-18599.38;5044739;28;20056;-76
2023/08/17 08:48:39;;;;;;;8.45;4.45;;;;;;;21.31;100.00;-18599.66;5042670;28;20175;-77
2023/08/17 08:51:08;;;;;;;8.32;4.75;;;;;;;21.24;100.00;-18597.75;5044032;28;22824;-77
2023/08/17 08:53:44;;;;;;;;;;;;;;;21.22;100.00;-18597.22;5059115;28;20428;-76
2023/08/17 08:56:14;;;;;;;7.85;4.82;;;;;;;21.16;100.00;-18595.72;5057888;28;19932;-77
2023/08/17 08:58:41;;;;;;;8.25;5.03;;;;;;;21.13;100.00;-18595.03;5042142;28;20041;-77
2023/08/17 09:01:10;;;;;;;7.53;5.00;;;;;;;21.20;100.00;-18596.78;5044243;28;20127;-77
2023/08/17 09:03:35;;;;;;;9.30;5.20;;;;;;;21.19;100.00;-18596.53;5043423;28;20041;-77
2023/08/17 09:06:01;;;;;;;9.63;4.72;;;;;;;21.16;100.00;-18595.84;5045720;28;20412;-77
2023/08/17 09:08:29;;;;;;;9.85;4.93;;;;;;;21.36;100.00;-18601.16;5044974;28;20045;-76
2023/08/17 09:10:55;;;;;;;7.72;5.20;;;;;;;21.15;100.00;-18595.44;5048310;28;20100;-75
2023/08/17 09:13:20;;;;;;;7.70;5.38;;;;;;;21.50;100.00;-18604.81;5041957;28;20070;-77
2023/08/17 09:15:45;;;;;;;6.82;4.78;;;;;;;21.54;100.00;-18605.78;5046363;28;20053;-77
2023/08/17 09:18:11;;;;;;;7.07;5.32;;;;;;;21.56;100.00;-18606.31;5049247;28;20096;-76
2023/08/17 09:20:42;;;;;;;8.18;4.97;;;;;;;21.53;100.00;-18605.50;5060187;28;20102;-76
2023/08/17 09:23:25;;;;;;;6.60;5.40;;;;;;;21.50;100.00;-18604.69;5047663;28;20049;-77
2023/08/17 09:26:00;;;;;;;10.20;4.88;;;;;;;21.51;100.00;-18604.97;5045611;28;20626;-76
2023/08/17 09:28:25;;;;;;;8.40;5.38;;;;;;;21.37;100.00;-18601.41;5040003;28;20130;-77
2023/08/17 09:30:58;;;;;;;10.40;5.90;;;;;;;21.29;100.00;-18599.25;5047641;28;20045;-76
2023/08/17 09:33:25;;;;;;;7.18;5.75;;;;;;;21.38;100.00;-18601.69;5047297;28;20063;-77
2023/08/17 09:35:52;;;;;;;8.45;5.47;;;;;;;21.44;100.00;-18603.06;5043403;28;20055;-77
2023/08/17 09:38:18;;;;;;;8.02;5.80;;;;;;;21.28;100.00;-18598.84;5047777;28;20128;-76
2023/08/17 09:40:44;;;;;;;7.88;5.80;;;;;;;21.24;100.00;-18597.88;5046883;28;20048;-77
2023/08/17 09:43:10;;;;;;;9.07;5.70;;;;;;;21.31;100.00;-18599.78;5062868;28;20045;-77
2023/08/17 09:45:37;;;;;;;8.65;5.45;;;;;;;21.33;100.00;-18600.34;5046861;28;20598;-77
2023/08/17 09:48:03;;;;;;;9.40;5.75;;;;;;;21.38;100.00;-18601.69;5048726;28;20045;-77
2023/08/17 09:50:29;;;;;;;8.70;5.78;;;;;;;21.38;100.00;-18601.69;5048025;28;20567;-77
2023/08/17 09:52:55;;;;;;;7.35;5.50;;;;;;;21.43;100.00;-18602.78;5048049;28;20128;-77
2023/08/17 09:55:23;;;;;;;9.93;5.85;;;;;;;21.50;100.00;-18604.69;5048576;28;20041;-75
2023/08/17 09:57:52;;;;;;;8.68;5.78;;;;;;;21.37;100.00;-18601.28;5051176;28;20608;-76
2023/08/17 10:00:19;;;;;;;8.57;5.57;;;;;;;21.38;100.00;-18601.56;5051079;28;20051;-77
2023/08/17 10:02:45;;;;;;;10.43;6.68;;;;;;;21.56;100.00;-18606.31;5068203;28;20412;-76
2023/08/17 10:05:12;;;;;;;8.60;6.20;;;;;;;21.53;100.00;-18605.63;5048419;28;20049;-76
2023/08/17 10:07:40;;;;;;;8.98;6.22;;;;;;;21.60;100.00;-18607.41;5061416;28;20103;-77
2023/08/17 10:10:07;;;;;;;8.02;6.00;;;;;;;21.70;100.00;-18610.13;5048375;28;20071;-76
2023/08/17 10:13:13;;;;;;;7.72;6.20;;;;;;;21.76;100.00;-18611.75;5047572;28;20044;-76
2023/08/17 10:15:57;;;;;;;7.80;5.35;;;;;;;21.61;100.00;-18607.69;4999456;28;20095;-76
2023/08/17 10:18:37;;;;;;;11.27;6.10;;;;;;;21.80;100.00;-18612.69;5043962;28;20045;-75
2023/08/17 10:21:07;;;;;;;8.63;5.88;;;;;;;21.93;100.00;-18616.09;5041644;28;20048;-76
2023/08/17 10:23:33;;;;;;;9.55;6.75;;;;;;;22.07;100.00;-18619.91;5045599;28;20037;-76
2023/08/17 10:26:00;;;;;;;7.60;6.47;;;;;;;22.12;100.00;-18621.13;5045085;28;20041;-76
2023/08/17 10:28:26;;;;;;;9.45;6.40;;;;;;;22.24;100.00;-18624.53;5045042;28;20103;-76
2023/08/17 10:30:52;;;;;;;8.15;5.88;;;;;;;22.24;100.00;-18624.53;5037399;28;20044;-76
2023/08/17 10:33:18;;;;;;;9.88;6.50;;;;;;;22.23;100.00;-18624.13;5047193;28;20551;-76
2023/08/17 10:35:45;;;;;;;9.77;6.60;;;;;;;22.14;100.00;-18621.66;5044298;28;20049;-77
2023/08/17 10:38:15;;;;;;;8.32;6.30;;;;;;;22.29;100.00;-18625.75;5046851;28;20095;-76
2023/08/17 10:40:42;;;;;;;10.15;5.70;;;;;;;22.35;100.00;-18627.25;5045264;28;20044;-77
2023/08/17 10:43:07;;;;;;;8.20;5.97;;;;;;;22.35;100.00;-18627.38;5045202;28;20075;-76
2023/08/17 10:45:35;;;;;;;8.15;6.50;;;;;;;22.29;100.00;-18625.75;5045639;28;20053;-76
2023/08/17 10:48:07;;;;;;;10.10;6.00;;;;;;;22.51;100.00;-18631.59;5045974;28;20045;-76
2023/08/17 10:50:33;;;;;;;8.65;5.65;;;;;;;22.51;100.00;-18631.59;5044599;28;20059;-76
2023/08/17 10:53:04;;;;;;;11.27;6.30;;;;;;;22.57;100.00;-18633.22;5046018;28;20524;-76
2023/08/17 10:55:50;;;;;;;8.65;6.22;;;;;;;22.52;100.00;-18632.00;5044920;28;20049;-76
2023/08/17 10:58:16;;;;;;;9.13;6.43;;;;;;;22.66;100.00;-18635.66;5043850;28;20049;-76
2023/08/17 11:00:46;;;;;;;8.55;6.60;;;;;;;22.69;100.00;-18636.47;5059428;28;20040;-76
2023/08/17 11:03:19;;;;;;;8.23;6.55;;;;;;;22.52;100.00;-18632.00;5058147;28;20041;-76
2023/08/17 11:05:53;;;;;;;7.32;6.22;;;;;;;22.60;100.00;-18634.03;5046154;28;20097;-77
2023/08/17 11:08:26;;;;;;;8.80;6.22;;;;;;;22.51;100.00;-18631.59;5044164;28;20132;-76
2023/08/17 11:11:09;;;;;;;9.90;6.97;;;;;;;22.50;100.00;-18631.31;5044788;28;20045;-76
2023/08/17 11:13:37;;;;;;;8.18;6.28;;;;;;;22.43;100.00;-18629.56;5045146;28;20073;-77
2023/08/17 11:16:04;;;;;;;9.43;6.72;;;;;;;22.61;100.00;-18634.16;5010264;28;20049;-76